Time;durP1;ratioP1;P1;durP2;ratioP2;P2;SDS_P1;SDS_P2;PMS_P1;PMS_P2;Temp;Humidity;BMP_temperature;BMP_pressure;BME280_temperature;BME280_humidity;BME280_pressure;Samples;Min_cycle;Max_cycle;Signal;HPM_P1;HPM_P2
2023/04/05 12:39:08;;;;;;;8.02;4.07;;;8.20;78.30;;;;;;5108215;27;20319;-57
2023/04/05 12:41:34;;;;;;;9.15;4.63;;;8.10;77.00;;;;;;5123603;28;20564;-59
2023/04/05 12:44:14;;;;;;;7.28;4.95;;;8.20;79.00;;;;;;5127908;28;20019;-59
2023/04/05 12:46:41;;;;;;;7.80;4.75;;;8.30;83.30;;;;;;5128083;28;20114;-61
2023/04/05 12:49:17;;;;;;;8.45;5.13;;;8.50;83.40;;;;;;5118617;28;20016;-57
2023/04/05 12:51:46;;;;;;;8.50;4.80;;;8.60;82.30;;;;;;5108139;28;20479;-59
2023/04/05 12:54:13;;;;;;;9.10;4.28;;;8.70;81.60;;;;;;5107341;28;20020;-60
2023/04/05 12:56:39;;;;;;;7.10;4.40;;;8.80;82.80;;;;;;5108223;28;20434;-61
2023/04/05 12:59:09;;;;;;;10.05;4.72;;;8.90;83.40;;;;;;5108409;28;20031;-60
2023/04/05 13:01:34;;;;;;;8.40;4.65;;;9.00;79.50;;;;;;5107682;28;20035;-62
2023/04/05 13:04:01;;;;;;;7.47;3.97;;;9.00;81.10;;;;;;5107717;28;20020;-61
2023/04/05 13:06:27;;;;;;;8.52;4.55;;;9.10;82.20;;;;;;5108530;28;20019;-59
2023/04/05 13:08:52;;;;;;;7.90;4.25;;;9.10;81.40;;;;;;5108128;28;20043;-58
2023/04/05 13:11:18;;;;;;;5.30;3.67;;;9.20;81.60;;;;;;5124185;28;20070;-61
2023/04/05 13:13:44;;;;;;;7.35;3.88;;;9.30;82.10;;;;;;5128196;28;20020;-61
2023/04/05 13:16:09;;;;;;;7.50;4.25;;;9.40;81.80;;;;;;5124501;28;20044;-61
2023/04/05 13:18:35;;;;;;;6.40;3.88;;;9.50;79.60;;;;;;5107993;28;20043;-57
2023/04/05 13:21:06;;;;;;;7.13;4.32;;;9.60;80.50;;;;;;5107238;28;20480;-57
2023/04/05 13:23:32;;;;;;;7.82;4.63;;;9.70;78.70;;;;;;5106542;28;20452;-60
2023/04/05 13:25:58;;;;;;;9.40;4.53;;;9.70;78.30;;;;;;5124972;28;20047;-57
2023/04/05 13:28:24;;;;;;;7.22;4.03;;;9.70;75.30;;;;;;5128507;28;20047;-57
2023/04/05 13:30:50;;;;;;;7.47;4.07;;;9.70;75.90;;;;;;5128017;28;20019;-59
2023/04/05 13:33:17;;;;;;;6.90;4.30;;;9.70;75.20;;;;;;5127486;28;20023;-61
2023/04/05 13:35:42;;;;;;;7.32;4.03;;;9.80;73.80;;;;;;5127576;28;20054;-60
2023/04/05 13:38:08;;;;;;;6.38;3.92;;;9.70;71.30;;;;;;5128162;28;20075;-59
2023/04/05 13:40:33;;;;;;;6.65;4.15;;;9.70;70.80;;;;;;5111703;28;20020;-59
2023/04/05 13:43:00;;;;;;;6.13;4.30;;;9.70;67.90;;;;;;5104844;28;20028;-61
2023/04/05 13:45:26;;;;;;;7.70;4.13;;;9.70;70.10;;;;;;5108616;28;20031;-61
2023/04/05 13:47:52;;;;;;;7.72;4.55;;;9.70;70.50;;;;;;5107269;28;20065;-60
2023/04/05 13:50:17;;;;;;;9.60;4.80;;;9.80;70.10;;;;;;5094172;28;20028;-60
2023/04/05 13:52:43;;;;;;;7.97;4.07;;;9.90;67.20;;;;;;5093464;28;20035;-61
2023/04/05 13:55:09;;;;;;;7.07;3.55;;;9.90;66.50;;;;;;5093901;28;20020;-60
2023/04/05 13:57:34;;;;;;;6.07;3.60;;;9.90;68.30;;;;;;5094827;28;20024;-60
2023/04/05 14:00:00;;;;;;;5.75;3.60;;;10.00;69.20;;;;;;5109318;28;20051;-61
2023/04/05 14:02:26;;;;;;;6.72;2.70;;;10.10;70.80;;;;;;5112091;28;20035;-59
2023/04/05 14:04:53;;;;;;;5.60;3.28;;;10.20;71.70;;;;;;5111578;28;20028;-62
2023/04/05 14:07:19;;;;;;;7.70;4.40;;;10.30;71.90;;;;;;5114078;28;20023;-60
2023/04/05 14:09:45;;;;;;;5.90;3.50;;;10.30;68.50;;;;;;5110724;28;20019;-59
2023/04/05 14:12:12;;;;;;;5.68;3.72;;;10.40;69.50;;;;;;5092444;28;20027;-61
2023/04/05 14:14:37;;;;;;;6.47;3.70;;;10.40;70.20;;;;;;5093933;28;20754;-59
2023/04/05 14:17:03;;;;;;;4.97;3.28;;;10.50;69.60;;;;;;5092885;28;20111;-59
2023/04/05 14:19:28;;;;;;;5.78;3.42;;;10.40;69.50;;;;;;5093408;28;20060;-59
2023/04/05 14:21:54;;;;;;;6.72;4.15;;;10.50;70.00;;;;;;5092687;28;20024;-61
2023/04/05 14:24:20;;;;;;;6.82;3.83;;;10.50;69.70;;;;;;5093581;28;20059;-60
2023/04/05 14:26:48;;;;;;;6.57;3.63;;;10.50;69.20;;;;;;5093069;28;20020;-61
2023/04/05 14:29:15;;;;;;;5.90;3.30;;;10.50;69.50;;;;;;5093197;28;20375;-59
2023/04/05 14:31:42;;;;;;;5.75;3.47;;;10.60;69.50;;;;;;5092978;28;20031;-60
2023/04/05 14:34:07;;;;;;;9.55;4.38;;;10.60;69.80;;;;;;5102265;28;20047;-61
2023/04/05 14:36:33;;;;;;;7.28;4.03;;;10.70;69.10;;;;;;5096088;28;20055;-59
2023/04/05 14:38:59;;;;;;;10.13;4.40;;;10.70;66.00;;;;;;5092612;28;20056;-59
2023/04/05 14:41:26;;;;;;;8.07;4.78;;;10.70;64.90;;;;;;5102474;28;20329;-61
2023/04/05 14:43:51;;;;;;;6.00;3.70;;;10.60;62.30;;;;;;5113734;28;20023;-61
2023/04/05 14:46:17;;;;;;;4.70;3.33;;;10.60;63.10;;;;;;5111942;28;20015;-60
2023/04/05 14:48:43;;;;;;;8.38;3.78;;;10.70;65.10;;;;;;5113244;28;20020;-61
2023/04/05 14:51:09;;;;;;;9.13;4.32;;;10.70;65.00;;;;;;5112863;28;20120;-59
2023/04/05 14:53:34;;;;;;;5.82;3.65;;;10.80;64.70;;;;;;5102767;28;20013;-58
2023/04/05 14:56:00;;;;;;;5.03;3.30;;;10.80;65.10;;;;;;5092879;28;20046;-58
2023/04/05 14:58:28;;;;;;;6.25;3.50;;;10.90;65.40;;;;;;5092037;28;20040;-58
2023/04/05 15:00:54;;;;;;;6.18;3.65;;;11.00;65.90;;;;;;5092239;28;20023;-58
2023/04/05 15:03:19;;;;;;;6.35;3.95;;;11.10;65.30;;;;;;5091333;28;20026;-60
2023/04/05 15:05:46;;;;;;;6.95;3.63;;;11.20;65.00;;;;;;5101494;28;20060;-59
2023/04/05 15:08:12;;;;;;;8.55;4.50;;;11.20;64.90;;;;;;5111527;28;20495;-59
2023/04/05 15:10:38;;;;;;;6.45;4.47;;;11.30;63.40;;;;;;5112957;28;20370;-58
2023/04/05 15:13:04;;;;;;;9.25;4.20;;;11.30;63.10;;;;;;5112140;28;20102;-59
2023/04/05 15:15:30;;;;;;;6.93;4.07;;;11.40;62.00;;;;;;5112316;28;20095;-57
2023/04/05 15:17:55;;;;;;;6.63;4.30;;;11.60;60.60;;;;;;5094080;28;20046;-59
2023/04/05 15:20:21;;;;;;;9.18;3.90;;;12.00;60.50;;;;;;5092856;28;20020;-59
2023/04/05 15:22:47;;;;;;;8.32;3.25;;;12.60;61.00;;;;;;5090291;28;20024;-59
2023/04/05 15:25:12;;;;;;;6.63;3.58;;;13.40;60.90;;;;;;5091211;28;20035;-60
2023/04/05 15:27:38;;;;;;;5.75;3.65;;;14.10;58.10;;;;;;5089864;28;20012;-60
2023/04/05 15:30:04;;;;;;;6.57;4.10;;;14.60;56.70;;;;;;5090594;28;20020;-59
2023/04/05 15:32:32;;;;;;;6.15;3.50;;;15.10;52.90;;;;;;5091008;28;20123;-61
2023/04/05 15:35:01;;;;;;;6.63;3.85;;;15.70;52.70;;;;;;5091906;28;20069;-60
2023/04/05 15:37:27;;;;;;;8.35;4.18;;;16.10;51.50;;;;;;5089957;28;20093;-60
2023/04/05 15:39:52;;;;;;;6.00;3.88;;;16.60;50.10;;;;;;5091502;28;20024;-60
2023/04/05 15:42:20;;;;;;;6.10;3.50;;;16.90;49.10;;;;;;5090302;28;20464;-60
2023/04/05 15:44:46;;;;;;;8.55;4.07;;;17.20;48.70;;;;;;5091740;28;20024;-60
2023/04/05 15:47:12;;;;;;;7.90;4.30;;;17.40;47.70;;;;;;5091754;28;20507;-60
2023/04/05 15:49:37;;;;;;;7.45;3.58;;;17.50;47.60;;;;;;5088461;28;20024;-60
2023/04/05 15:52:03;;;;;;;8.13;4.07;;;17.70;47.60;;;;;;5104740;28;20472;-60
2023/04/05 15:54:29;;;;;;;6.88;3.95;;;17.80;45.50;;;;;;5111586;28;20027;-61
2023/04/05 15:56:55;;;;;;;5.47;3.25;;;17.80;46.40;;;;;;5094932;28;20021;-60
2023/04/05 15:59:21;;;;;;;5.72;3.38;;;18.00;46.80;;;;;;5090622;28;20069;-60
2023/04/05 16:01:47;;;;;;;6.32;3.55;;;18.10;45.60;;;;;;5091246;28;20070;-60
2023/04/05 16:04:12;;;;;;;8.48;3.75;;;18.30;46.30;;;;;;5090985;28;20008;-61
2023/04/05 16:06:38;;;;;;;5.78;3.60;;;18.30;43.60;;;;;;5075500;28;20028;-61
2023/04/05 16:09:04;;;;;;;5.50;3.75;;;18.40;43.10;;;;;;5069149;28;20795;-61
2023/04/05 16:11:30;;;;;;;6.32;3.67;;;18.70;42.90;;;;;;5079472;28;20024;-62
2023/04/05 16:13:55;;;;;;;6.45;3.70;;;19.00;42.50;;;;;;5090541;28;20095;-60
2023/04/05 16:16:22;;;;;;;6.35;3.20;;;19.30;42.30;;;;;;5090657;28;20135;-62
2023/04/05 16:18:48;;;;;;;6.13;2.90;;;19.60;41.70;;;;;;5090524;28;20090;-59
2023/04/05 16:21:15;;;;;;;6.38;3.53;;;19.80;41.00;;;;;;5088124;28;20024;-61
2023/04/05 16:23:40;;;;;;;9.00;4.25;;;19.90;40.80;;;;;;5089703;28;20043;-60
2023/04/05 16:26:06;;;;;;;6.95;4.30;;;19.90;40.20;;;;;;5089598;28;20108;-60
2023/04/05 16:28:32;;;;;;;4.93;3.47;;;19.90;39.50;;;;;;5090969;28;20032;-60
2023/04/05 16:30:58;;;;;;;5.82;3.67;;;20.00;39.70;;;;;;5092262;28;20062;-60
2023/04/05 16:33:25;;;;;;;7.43;3.83;;;20.20;38.90;;;;;;5110418;28;20026;-60
2023/04/05 16:35:50;;;;;;;6.22;3.80;;;20.30;39.40;;;;;;5111423;28;20498;-61
2023/04/05 16:38:16;;;;;;;6.60;3.35;;;20.30;39.80;;;;;;5110138;28;20055;-60
2023/04/05 16:40:43;;;;;;;7.53;3.45;;;20.30;39.20;;;;;;5110462;28;20050;-61
2023/04/05 16:43:09;;;;;;;5.45;3.15;;;20.20;39.20;;;;;;5094392;28;20100;-60
2023/04/05 16:45:35;;;;;;;6.82;3.80;;;20.00;40.00;;;;;;5072921;28;20016;-60
2023/04/05 16:48:02;;;;;;;6.22;3.75;;;19.80;39.50;;;;;;5110796;28;20102;-59
2023/04/05 16:50:27;;;;;;;6.07;3.50;;;19.70;39.80;;;;;;5110770;28;20066;-60
2023/04/05 16:52:53;;;;;;;6.63;3.83;;;19.50;39.80;;;;;;5109959;28;20023;-60
2023/04/05 16:55:18;;;;;;;6.93;3.88;;;19.40;39.80;;;;;;5109488;28;20460;-58
2023/04/05 16:57:44;;;;;;;5.72;3.22;;;19.30;39.80;;;;;;5110879;28;20036;-61
2023/04/05 17:00:11;;;;;;;7.55;4.20;;;19.10;39.70;;;;;;5110590;28;20115;-59
2023/04/05 17:02:36;;;;;;;7.00;3.72;;;19.00;40.30;;;;;;5109613;28;20496;-60
2023/04/05 17:05:02;;;;;;;5.90;3.58;;;18.80;40.30;;;;;;5106448;28;20543;-63
2023/04/05 17:07:27;;;;;;;7.43;3.90;;;18.50;40.90;;;;;;5098447;28;20035;-60
2023/04/05 17:09:55;;;;;;;7.05;3.95;;;18.20;41.60;;;;;;5090435;28;20352;-58
2023/04/05 17:12:21;;;;;;;7.82;4.20;;;17.90;41.70;;;;;;5089063;28;20032;-61
2023/04/05 17:14:47;;;;;;;9.68;4.60;;;17.50;41.70;;;;;;5089375;28;20028;-60
2023/04/05 17:17:12;;;;;;;8.02;4.13;;;17.20;42.30;;;;;;5090826;28;20036;-60
2023/04/05 17:19:38;;;;;;;8.95;4.53;;;16.80;43.10;;;;;;5086386;28;20376;-60
2023/04/05 17:22:03;;;;;;;7.00;4.00;;;16.40;43.60;;;;;;5087422;28;20471;-59
2023/04/05 17:24:36;;;;;;;7.72;4.30;;;16.10;44.10;;;;;;5090055;28;20465;-61
2023/04/05 17:27:03;;;;;;;5.70;3.95;;;15.70;45.50;;;;;;5090223;28;20181;-60
2023/04/05 17:29:29;;;;;;;9.93;4.57;;;15.30;45.70;;;;;;5109604;28;20107;-60
2023/04/05 17:31:55;;;;;;;9.13;4.90;;;14.90;46.20;;;;;;5092626;28;20107;-61
2023/04/05 17:34:21;;;;;;;9.30;5.63;;;14.70;46.60;;;;;;5092062;28;20122;-60
2023/04/05 17:36:47;;;;;;;8.25;4.20;;;14.50;46.70;;;;;;5092298;28;20110;-61
2023/04/05 17:39:16;;;;;;;8.07;4.10;;;14.40;47.20;;;;;;5103225;28;20387;-60
2023/04/05 17:41:42;;;;;;;7.35;3.90;;;14.10;47.70;;;;;;5102659;28;20025;-60
2023/04/05 17:44:07;;;;;;;7.07;3.88;;;13.80;48.40;;;;;;5101277;28;20042;-61
2023/04/05 17:46:33;;;;;;;6.00;3.53;;;13.50;49.10;;;;;;5112329;28;20016;-61
2023/04/05 17:48:58;;;;;;;6.00;3.50;;;13.30;49.80;;;;;;5110185;28;20058;-61
2023/04/05 17:51:26;;;;;;;10.15;3.50;;;12.90;50.40;;;;;;5111868;28;20052;-60
2023/04/05 17:53:51;;;;;;;7.13;4.25;;;12.70;51.10;;;;;;5111665;28;20026;-59
2023/04/05 17:56:17;;;;;;;8.05;4.00;;;12.40;51.60;;;;;;5108986;28;20028;-60
2023/04/05 17:58:42;;;;;;;8.35;3.85;;;12.10;52.00;;;;;;5091745;28;20057;-59
2023/04/05 18:01:12;;;;;;;7.30;3.80;;;12.00;53.20;;;;;;5090989;28;20045;-60
2023/04/05 18:03:38;;;;;;;6.65;3.63;;;11.80;53.20;;;;;;5089668;28;20036;-59
2023/04/05 18:06:04;;;;;;;5.72;3.28;;;11.60;53.80;;;;;;5091835;28;20020;-60
2023/04/05 18:08:30;;;;;;;6.05;3.40;;;11.40;54.40;;;;;;5090718;28;20025;-60
2023/04/05 18:10:56;;;;;;;6.50;3.40;;;11.30;55.00;;;;;;5090855;28;20450;-59
2023/04/05 18:13:22;;;;;;;7.45;3.85;;;11.10;55.30;;;;;;5091027;28;20541;-60
2023/04/05 18:15:56;;;;;;;9.23;4.05;;;11.00;56.00;;;;;;5092688;28;20020;-59
2023/04/05 18:18:22;;;;;;;8.18;3.78;;;10.80;56.50;;;;;;5070823;28;20064;-60
2023/04/05 18:20:52;;;;;;;8.00;3.50;;;10.70;57.20;;;;;;5071501;28;20027;-59
2023/04/05 18:23:21;;;;;;;7.65;4.13;;;10.60;57.70;;;;;;5069599;28;20028;-60
2023/04/05 18:25:47;;;;;;;7.80;4.20;;;10.40;58.50;;;;;;5071394;28;20029;-60
2023/04/05 18:28:13;;;;;;;8.73;4.85;;;10.30;58.90;;;;;;5091680;28;20024;-59
2023/04/05 18:30:38;;;;;;;7.35;4.13;;;10.20;59.20;;;;;;5109985;28;20102;-60
2023/04/05 18:33:04;;;;;;;6.95;3.70;;;10.10;59.80;;;;;;5110242;28;20098;-58
2023/04/05 18:35:30;;;;;;;7.97;4.22;;;9.90;60.10;;;;;;5095723;28;20022;-59
2023/04/05 18:37:56;;;;;;;7.75;4.20;;;9.90;60.60;;;;;;5090001;28;20040;-59
2023/04/05 18:40:21;;;;;;;8.35;4.10;;;9.80;60.90;;;;;;5091533;28;20012;-60
2023/04/05 18:42:47;;;;;;;7.40;3.75;;;9.60;61.40;;;;;;5096826;28;20047;-61
2023/04/05 18:45:12;;;;;;;7.50;3.92;;;9.60;61.90;;;;;;5111220;28;20379;-60
2023/04/05 18:47:38;;;;;;;7.57;4.10;;;9.50;62.30;;;;;;5111798;28;20019;-59
2023/04/05 18:50:04;;;;;;;7.75;4.20;;;9.40;62.60;;;;;;5109687;28;20031;-60
2023/04/05 18:52:32;;;;;;;9.20;4.68;;;9.40;62.90;;;;;;5111265;28;20023;-60
2023/04/05 18:55:00;;;;;;;7.75;4.43;;;9.30;63.30;;;;;;5111375;28;20086;-59
2023/04/05 18:57:26;;;;;;;9.10;5.00;;;9.20;63.70;;;;;;5111157;28;20058;-59
2023/04/05 18:59:51;;;;;;;9.45;5.05;;;9.10;64.20;;;;;;5111528;28;20367;-57
2023/04/05 19:02:17;;;;;;;9.95;5.00;;;9.10;64.80;;;;;;5111403;28;20027;-61
2023/04/05 19:04:42;;;;;;;6.88;4.15;;;9.00;65.10;;;;;;5093510;28;20028;-59
2023/04/05 19:07:08;;;;;;;8.90;4.03;;;8.90;65.50;;;;;;5106789;28;20034;-59
2023/04/05 19:09:34;;;;;;;7.60;4.00;;;8.80;65.60;;;;;;5110455;28;20026;-59
2023/04/05 19:11:59;;;;;;;8.82;4.07;;;8.80;66.10;;;;;;5109791;28;20032;-61
2023/04/05 19:14:25;;;;;;;6.95;3.88;;;8.70;66.20;;;;;;5111369;28;20016;-60
2023/04/05 19:16:50;;;;;;;8.25;4.63;;;8.60;66.40;;;;;;5110870;28;20055;-60
2023/04/05 19:19:17;;;;;;;9.75;5.13;;;8.50;66.70;;;;;;5110121;28;20438;-61
2023/04/05 19:21:43;;;;;;;10.13;5.18;;;8.50;66.90;;;;;;5111209;28;20123;-59
2023/04/05 19:24:09;;;;;;;9.48;5.18;;;8.40;67.20;;;;;;5110919;28;20535;-60
2023/04/05 19:26:36;;;;;;;10.10;5.55;;;8.20;67.50;;;;;;5089224;28;20024;-60
2023/04/05 19:29:02;;;;;;;9.80;5.13;;;8.20;67.90;;;;;;5090060;28;20078;-59
2023/04/05 19:31:28;;;;;;;9.55;4.60;;;8.10;68.30;;;;;;5094226;28;20027;-60
2023/04/05 19:33:54;;;;;;;8.48;4.43;;;8.00;68.50;;;;;;5110403;28;20024;-58
2023/04/05 19:36:20;;;;;;;7.85;4.57;;;7.90;68.80;;;;;;5110374;28;20533;-60
2023/04/05 19:38:46;;;;;;;12.00;5.78;;;7.80;69.10;;;;;;5110604;28;20094;-61
2023/04/05 19:41:11;;;;;;;9.88;5.70;;;7.80;69.30;;;;;;5090933;28;20028;-56
2023/04/05 19:43:39;;;;;;;12.35;6.30;;;7.70;69.60;;;;;;5100342;28;20035;-59
2023/04/05 19:46:08;;;;;;;11.13;6.35;;;7.70;69.90;;;;;;5069672;28;20500;-59
2023/04/05 19:48:36;;;;;;;12.57;7.32;;;7.60;70.10;;;;;;5068646;28;20016;-61
2023/04/05 19:51:06;;;;;;;13.50;6.50;;;7.50;70.40;;;;;;5070030;28;20069;-60
2023/04/05 19:53:48;;;;;;;12.82;7.65;;;7.40;70.80;;;;;;5069499;28;20024;-60
2023/04/05 19:56:25;;;;;;;11.82;6.00;;;7.30;71.10;;;;;;5069894;28;20024;-58
2023/04/05 19:59:30;;;;;;;11.10;5.82;;;7.20;71.50;;;;;;5069986;28;20036;-59
2023/04/05 20:01:58;;;;;;;9.75;5.50;;;7.00;72.30;;;;;;5078612;28;20481;-59
2023/04/05 20:04:25;;;;;;;9.95;5.32;;;6.90;72.70;;;;;;5110107;28;20024;-60
2023/04/05 20:06:52;;;;;;;11.40;5.45;;;6.80;73.40;;;;;;5108015;28;20030;-60
2023/04/05 20:09:20;;;;;;;9.57;4.88;;;6.80;74.00;;;;;;5107307;28;20642;-59
2023/04/05 20:12:01;;;;;;;8.23;4.75;;;6.70;75.30;;;;;;5109577;28;20582;-59
2023/04/05 20:14:29;;;;;;;7.82;4.90;;;6.60;75.30;;;;;;5108636;28;20020;-60
2023/04/05 20:16:56;;;;;;;7.85;4.28;;;6.50;75.90;;;;;;5103323;28;20070;-60
2023/04/05 20:19:30;;;;;;;7.88;4.45;;;6.40;76.40;;;;;;5090090;28;20484;-60
2023/04/05 20:22:06;;;;;;;8.60;4.97;;;6.40;77.00;;;;;;5088862;28;20072;-59
2023/04/05 20:24:31;;;;;;;9.20;4.95;;;6.30;77.50;;;;;;5090099;28;20028;-59
2023/04/05 20:26:57;;;;;;;8.88;4.97;;;6.30;78.00;;;;;;5088410;28;20392;-60
2023/04/05 20:29:30;;;;;;;10.55;5.20;;;6.20;78.50;;;;;;5088579;28;20024;-61
2023/04/05 20:31:56;;;;;;;9.95;5.22;;;6.20;79.00;;;;;;5090832;28;20379;-59
2023/04/05 20:34:36;;;;;;;10.55;5.93;;;6.10;79.50;;;;;;5089748;28;20032;-60
2023/04/05 20:37:06;;;;;;;11.88;6.32;;;6.10;80.20;;;;;;5088486;28;20040;-60
2023/04/05 20:39:32;;;;;;;9.93;6.40;;;6.00;80.50;;;;;;5090100;28;20086;-60
2023/04/05 20:41:59;;;;;;;11.23;5.50;;;5.90;80.80;;;;;;5103914;28;20582;-58
2023/04/05 20:44:25;;;;;;;8.65;4.40;;;5.90;81.10;;;;;;5109442;28;20027;-60
2023/04/05 20:46:52;;;;;;;8.18;4.18;;;5.90;81.30;;;;;;5108753;28;20035;-60
2023/04/05 20:49:19;;;;;;;10.05;4.72;;;5.80;81.60;;;;;;5109449;28;20068;-58
2023/04/05 20:51:46;;;;;;;9.68;4.78;;;5.70;81.50;;;;;;5107797;28;20533;-60
2023/04/05 20:54:12;;;;;;;9.60;4.55;;;5.70;81.80;;;;;;5102249;28;20468;-59
